Webcam

East

METAR LOWZ 070540Z AUTO 27002KT 9999 BKN007 OVC038 M01/M01 Q1015=

West

METAR LOWZ 070540Z AUTO 27002KT 9999 BKN007 OVC038 M01/M01 Q1015=

North

METAR LOWZ 070540Z AUTO 27002KT 9999 BKN007 OVC038 M01/M01 Q1015=